Time;durP1;ratioP1;P1;durP2;ratioP2;P2;SDS_P1;SDS_P2;PMS_P1;PMS_P2;Temp;Humidity;BMP_temperature;BMP_pressure;BME280_temperature;BME280_humidity;BME280_pressure;Samples;Min_cycle;Max_cycle;Signal;HPM_P1;HPM_P2
2022/12/17 13:08:17;;;;;;;11.67;8.63;;;;;;;23.83;11.49;96200.50;4977776;28;20038;-71
2022/12/17 13:10:43;;;;;;;13.23;8.30;;;;;;;24.45;10.86;96206.75;4981357;28;20064;-72
2022/12/17 13:13:24;;;;;;;10.38;7.45;;;;;;;25.09;9.43;96196.28;4977372;28;20704;-72
2022/12/17 13:15:54;;;;;;;11.25;8.32;;;;;;;25.16;10.48;96200.72;4967669;28;20027;-72
2022/12/17 13:18:20;;;;;;;9.85;6.88;;;;;;;25.07;10.14;96200.34;4981728;28;20984;-72
2022/12/17 13:20:58;;;;;;;8.13;5.63;;;;;;;25.83;10.25;96208.59;4980289;28;20172;-72
2022/12/17 13:23:30;;;;;;;6.78;4.95;;;;;;;25.00;10.65;96210.63;4978542;28;20279;-72
2022/12/17 13:26:15;;;;;;;10.13;6.32;;;;;;;24.84;8.37;96205.81;4983665;28;20640;-71
2022/12/17 13:28:42;;;;;;;8.77;6.55;;;;;;;22.73;11.00;96205.97;4983838;28;20027;-72
2022/12/17 13:31:21;;;;;;;8.50;5.72;;;;;;;23.30;9.05;96207.00;4979806;28;20070;-71
2022/12/17 13:34:06;;;;;;;7.43;5.47;;;;;;;23.68;9.61;96207.31;4983550;28;20030;-72
2022/12/17 13:36:58;;;;;;;6.75;3.80;;;;;;;22.75;8.31;96206.56;4980097;28;20026;-71
2022/12/17 13:39:43;;;;;;;15.27;4.60;;;;;;;22.32;9.15;96195.13;4983598;28;20061;-71
2022/12/17 13:42:39;;;;;;;10.30;6.68;;;;;;;21.85;12.30;96210.38;4962727;28;20039;-72
2022/12/17 13:45:05;;;;;;;15.63;7.80;;;;;;;22.92;12.03;96201.16;4984012;28;20285;-72
2022/12/17 13:47:32;;;;;;;8.18;5.03;;;;;;;23.14;10.13;96202.38;4967108;28;20495;-72
2022/12/17 13:49:59;;;;;;;9.13;6.05;;;;;;;22.45;11.90;96206.75;4983104;28;20277;-72
2022/12/17 13:52:26;;;;;;;10.50;6.88;;;;;;;23.11;11.66;96203.66;4968780;28;20180;-72
2022/12/17 13:54:51;;;;;;;9.07;4.47;;;;;;;22.63;8.88;96206.59;4985895;28;20104;-72
2022/12/17 13:57:21;;;;;;;13.48;9.15;;;;;;;22.06;9.79;96210.84;4985349;28;20454;-72
2022/12/17 13:59:55;;;;;;;9.55;5.72;;;;;;;22.66;9.79;96210.72;4983757;28;20081;-72
2022/12/17 14:02:33;;;;;;;8.30;6.30;;;;;;;23.25;11.07;96209.63;4964193;28;20166;-71
2022/12/17 14:05:00;;;;;;;8.00;4.85;;;;;;;23.09;11.56;96208.53;4981181;28;20033;-72
2022/12/17 14:07:26;;;;;;;9.93;6.57;;;;;;;21.93;11.30;96203.81;4984537;28;20045;-72
2022/12/17 14:09:52;;;;;;;11.73;6.63;;;;;;;22.57;11.65;96204.84;4980774;28;20064;-72
2022/12/17 14:12:21;;;;;;;9.82;6.43;;;;;;;23.33;11.48;96204.84;4964933;28;20498;-72
2022/12/17 14:14:54;;;;;;;10.05;6.55;;;;;;;23.60;11.19;96206.91;4983867;28;20036;-72
2022/12/17 14:17:24;;;;;;;9.82;6.25;;;;;;;23.79;11.24;96210.19;4981995;28;20296;-71
2022/12/17 14:20:00;;;;;;;9.35;6.45;;;;;;;23.76;11.34;96218.88;4983433;28;20061;-72
2022/12/17 14:22:35;;;;;;;8.65;6.47;;;;;;;23.80;11.14;96209.97;4982513;28;20463;-72
2022/12/17 14:25:00;;;;;;;6.93;5.15;;;;;;;23.73;11.13;96209.31;4976898;28;20937;-72
2022/12/17 14:27:30;;;;;;;8.40;5.68;;;;;;;23.43;10.29;96215.91;4967054;28;20025;-71
2022/12/17 14:29:56;;;;;;;8.00;6.20;;;;;;;23.15;11.58;96214.91;4982001;28;20121;-72
2022/12/17 14:32:32;;;;;;;9.80;6.30;;;;;;;22.72;9.62;96217.91;4979516;28;20493;-70
2022/12/17 14:34:58;;;;;;;8.52;6.18;;;;;;;22.34;11.23;96222.00;4983842;28;20046;-71
2022/12/17 14:37:24;;;;;;;8.25;5.38;;;;;;;21.57;9.83;96214.59;4980651;28;20049;-71
2022/12/17 14:39:49;;;;;;;9.10;5.32;;;;;;;18.58;12.64;96215.22;4980967;28;20436;-71
2022/12/17 14:42:24;;;;;;;8.82;6.15;;;;;;;17.55;15.69;96221.03;4965438;28;20076;-71
2022/12/17 14:45:05;;;;;;;9.35;6.03;;;;;;;15.70;17.49;96225.16;4978344;28;20390;-71
2022/12/17 14:47:31;;;;;;;45.15;25.35;;;;;;;13.58;18.69;96234.72;4980846;28;20046;-69
2022/12/17 14:50:01;;;;;;;192.60;48.03;;;;;;;11.98;20.43;96229.66;4968254;28;20068;-71
2022/12/17 14:52:34;;;;;;;184.05;39.45;;;;;;;10.82;22.35;96235.91;4961521;28;20489;-70
2022/12/17 14:55:00;;;;;;;159.95;38.63;;;;;;;9.31;24.12;96241.50;4980862;28;20138;-71
2022/12/17 14:57:26;;;;;;;14.02;7.63;;;;;;;8.30;25.80;96246.84;4980112;28;20094;-71
2022/12/17 14:59:51;;;;;;;11.88;7.05;;;;;;;7.26;26.73;96244.94;4982354;28;20708;-71
2022/12/17 15:02:26;;;;;;;11.57;6.68;;;;;;;6.21;27.06;96253.31;4979421;28;20107;-70
2022/12/17 15:04:55;;;;;;;12.50;7.85;;;;;;;5.78;29.13;96255.22;4963294;28;20058;-70
2022/12/17 15:07:25;;;;;;;13.50;8.35;;;;;;;5.11;30.94;96246.78;4977035;28;20237;-69
2022/12/17 15:09:51;;;;;;;13.90;7.65;;;;;;;4.70;31.59;96250.88;4979156;28;20143;-69
2022/12/17 15:12:18;;;;;;;13.45;7.65;;;;;;;4.49;32.29;96258.72;4982780;28;20081;-69
2022/12/17 15:14:44;;;;;;;8.90;5.57;;;;;;;4.32;32.16;96257.47;4978450;28;20330;-70
2022/12/17 15:17:09;;;;;;;11.70;6.63;;;;;;;4.19;32.67;96252.31;4981008;28;20253;-70
2022/12/17 15:19:34;;;;;;;10.77;6.55;;;;;;;3.81;33.64;96251.72;4979470;28;20094;-70
2022/12/17 15:22:00;;;;;;;11.02;6.95;;;;;;;3.16;32.58;96249.56;4982915;28;20107;-70
2022/12/17 15:24:26;;;;;;;12.95;7.35;;;;;;;2.50;35.67;96261.41;4965161;28;20587;-71
2022/12/17 15:26:51;;;;;;;10.63;6.63;;;;;;;1.90;36.83;96269.13;4985784;28;20334;-70
2022/12/17 15:29:16;;;;;;;10.90;6.43;;;;;;;1.42;38.43;96275.81;4983729;28;20459;-70
2022/12/17 15:31:42;;;;;;;14.77;7.90;;;;;;;0.99;39.43;96275.16;4981999;28;20452;-70
2022/12/17 15:34:07;;;;;;;13.77;7.18;;;;;;;0.51;39.82;96281.69;4980245;28;20106;-70
2022/12/17 15:36:33;;;;;;;11.43;7.00;;;;;;;0.11;42.14;96289.47;4965403;28;20086;-69
2022/12/17 15:38:58;;;;;;;13.40;6.85;;;;;;;-0.25;42.68;96295.09;4981808;28;20123;-70
2022/12/17 15:44:08;;;;;;;11.88;7.03;;;;;;;-0.90;44.51;96298.94;4979841;28;20104;-70
2022/12/17 15:46:33;;;;;;;13.32;7.40;;;;;;;-1.22;43.48;96299.84;4981718;28;20554;-70
2022/12/17 15:48:59;;;;;;;10.85;6.15;;;;;;;-1.51;44.37;96305.78;4983227;28;20635;-71
2022/12/17 15:51:24;;;;;;;12.40;7.05;;;;;;;-1.76;45.97;96308.91;4980477;28;20593;-70
2022/12/17 15:53:50;;;;;;;10.45;6.60;;;;;;;-1.94;47.49;96306.34;4981547;28;20110;-70
2022/12/17 15:56:23;;;;;;;11.15;6.70;;;;;;;-2.08;47.96;96309.69;4982689;28;20392;-70
2022/12/17 15:58:48;;;;;;;9.93;6.43;;;;;;;-2.22;48.50;96306.97;4982338;28;20487;-69
2022/12/17 16:01:13;;;;;;;10.68;6.60;;;;;;;-2.45;48.15;96309.03;4978890;28;20111;-69
2022/12/17 16:03:39;;;;;;;12.13;6.45;;;;;;;-2.61;49.76;96315.03;4980760;28;20083;-70
2022/12/17 16:06:05;;;;;;;11.18;6.45;;;;;;;-2.81;50.14;96318.66;4976011;28;20187;-69
2022/12/17 16:08:30;;;;;;;14.02;7.00;;;;;;;-2.96;50.19;96320.25;4980395;28;20078;-69
2022/12/17 16:10:56;;;;;;;12.25;7.10;;;;;;;-3.12;50.53;96323.63;4981044;28;20115;-70
2022/12/17 16:13:21;;;;;;;11.80;6.55;;;;;;;-3.24;51.45;96330.25;4980006;28;20113;-70
2022/12/17 16:15:55;;;;;;;11.02;6.40;;;;;;;-3.38;51.36;96335.28;4980760;28;20091;-70
2022/12/17 16:18:22;;;;;;;10.88;6.53;;;;;;;-3.54;51.96;96328.19;4984145;28;20381;-71
2022/12/17 16:20:47;;;;;;;10.45;6.28;;;;;;;-3.67;52.28;96336.59;4983287;28;20658;-70
2022/12/17 16:23:13;;;;;;;12.23;6.25;;;;;;;-3.72;52.85;96335.97;4986368;28;20114;-70
2022/12/17 16:25:38;;;;;;;14.23;7.28;;;;;;;-3.79;53.16;96337.16;4980859;28;20456;-70
2022/12/17 16:28:03;;;;;;;12.50;6.85;;;;;;;-3.84;53.25;96333.94;4985629;28;20090;-70
2022/12/17 16:30:29;;;;;;;13.85;6.55;;;;;;;-3.94;53.38;96344.75;4986051;28;20155;-71
2022/12/17 16:32:57;;;;;;;11.57;6.63;;;;;;;-4.00;53.72;96342.44;4982645;28;20074;-70
2022/12/17 16:35:22;;;;;;;10.73;6.25;;;;;;;-4.06;53.99;96346.16;4984971;28;20567;-71
2022/12/17 16:37:48;;;;;;;13.25;7.00;;;;;;;-4.15;54.06;96341.34;4980379;28;20116;-70
2022/12/17 16:40:13;;;;;;;11.43;6.28;;;;;;;-4.18;54.24;96346.69;4983149;28;20178;-69
2022/12/17 16:42:39;;;;;;;11.40;6.47;;;;;;;-4.23;53.44;96351.25;4984176;28;20168;-70
2022/12/17 16:45:05;;;;;;;12.43;6.80;;;;;;;-4.27;54.61;96341.91;4983699;28;20090;-70
2022/12/17 16:47:30;;;;;;;10.25;6.28;;;;;;;-4.33;54.71;96345.59;4981599;28;20622;-69
2022/12/17 16:49:56;;;;;;;12.20;6.65;;;;;;;-4.34;55.42;96359.53;4986377;28;20106;-70
2022/12/17 16:52:21;;;;;;;11.57;6.40;;;;;;;-4.38;55.13;96352.78;4985391;28;20079;-71
2022/12/17 16:54:47;;;;;;;12.23;5.93;;;;;;;-4.42;54.75;96354.63;4982605;28;20107;-74
2022/12/17 16:57:12;;;;;;;12.55;6.57;;;;;;;-4.59;54.67;96353.63;4983526;28;20192;-70
2022/12/17 16:59:38;;;;;;;11.63;6.85;;;;;;;-4.55;56.18;96356.94;4983055;28;20730;-71
2022/12/17 17:02:03;;;;;;;11.57;6.43;;;;;;;-4.55;55.82;96362.16;4983548;28;20400;-71
2022/12/17 17:04:29;;;;;;;12.80;6.35;;;;;;;-4.60;54.29;96359.72;4984968;28;20078;-70
2022/12/17 17:06:55;;;;;;;15.73;7.82;;;;;;;-4.59;55.58;96365.75;4984474;28;20653;-69
2022/12/17 17:09:20;;;;;;;12.93;7.82;;;;;;;-4.60;55.22;96364.94;4985833;28;20230;-71
2022/12/17 17:11:46;;;;;;;12.88;8.30;;;;;;;-4.60;54.77;96361.47;4969006;28;20078;-71
2022/12/17 17:14:11;;;;;;;14.20;9.00;;;;;;;-4.63;55.21;96354.66;4985264;28;20424;-70
2022/12/17 17:16:37;;;;;;;14.80;8.63;;;;;;;-4.64;55.59;96360.78;4981343;28;20447;-70
2022/12/17 17:19:03;;;;;;;13.52;8.52;;;;;;;-4.69;55.30;96365.31;4983711;28;20161;-71
2022/12/17 17:21:33;;;;;;;16.65;9.57;;;;;;;-4.72;55.48;96366.28;4979280;28;20110;-70
2022/12/17 17:24:16;;;;;;;16.67;9.18;;;;;;;-4.76;55.21;96366.50;4981411;28;20063;-71
2022/12/17 17:26:42;;;;;;;17.17;9.73;;;;;;;-4.76;56.30;96369.09;4967461;28;20107;-70
2022/12/17 17:29:07;;;;;;;19.77;10.48;;;;;;;-4.75;56.21;96375.97;4984537;28;20649;-70
2022/12/17 17:31:33;;;;;;;20.05;11.30;;;;;;;-4.79;56.09;96370.03;4980135;28;20581;-71
2022/12/17 17:33:58;;;;;;;19.27;11.88;;;;;;;-4.77;56.41;96368.22;4979500;28;20589;-69
2022/12/17 17:36:26;;;;;;;23.48;13.18;;;;;;;-4.77;56.63;96373.44;4983414;28;20245;-71
2022/12/17 17:38:55;;;;;;;23.17;13.43;;;;;;;-4.75;56.75;96368.19;4982610;28;20329;-70
2022/12/17 17:41:22;;;;;;;24.75;14.77;;;;;;;-4.76;56.40;96364.72;4981994;28;20099;-71
2022/12/17 17:43:54;;;;;;;26.30;15.95;;;;;;;-4.77;56.83;96367.38;4978308;28;20209;-70
2022/12/17 17:46:20;;;;;;;24.30;15.60;;;;;;;-4.80;56.27;96377.94;4979291;28;20161;-71
2022/12/17 17:48:46;;;;;;;21.45;12.77;;;;;;;-4.87;56.56;96380.75;4982240;28;20082;-71
2022/12/17 17:51:19;;;;;;;27.95;16.58;;;;;;;-4.85;56.70;96378.09;4980123;28;20169;-69
2022/12/17 17:53:50;;;;;;;24.70;15.50;;;;;;;-4.86;56.38;96379.03;4983601;28;20101;-70
2022/12/17 17:56:20;;;;;;;25.88;15.93;;;;;;;-4.86;56.64;96379.84;4984660;28;20106;-71
2022/12/17 17:58:47;;;;;;;25.13;15.60;;;;;;;-4.88;56.03;96378.22;4978655;28;20665;-69
2022/12/17 18:01:16;;;;;;;24.30;15.23;;;;;;;-4.97;57.22;96377.69;4981357;28;20196;-69
2022/12/17 18:03:41;;;;;;;29.38;16.90;;;;;;;-4.96;57.61;96383.75;4981137;28;20092;-69
2022/12/17 18:06:08;;;;;;;25.63;16.67;;;;;;;-4.71;58.92;96380.13;4964755;28;20118;-69
2022/12/17 18:08:34;;;;;;;27.02;15.73;;;;;;;-4.66;56.90;96390.34;4976711;28;20325;-67
2022/12/17 18:11:00;;;;;;;23.23;12.93;;;;;;;-4.82;56.81;96393.56;4979016;28;20099;-69
2022/12/17 18:16:10;;;;;;;23.38;14.65;;;;;;;-4.96;55.93;96389.78;4982752;28;20097;-69
2022/12/17 18:18:35;;;;;;;24.38;15.98;;;;;;;-5.01;56.29;96396.91;4981998;28;20131;-68
2022/12/17 18:21:05;;;;;;;22.85;14.32;;;;;;;-5.05;56.67;96395.34;4981637;28;20093;-68
2022/12/17 18:23:30;;;;;;;23.50;14.13;;;;;;;-5.10;56.33;96405.06;4967649;28;20087;-68
2022/12/17 18:25:55;;;;;;;23.05;15.15;;;;;;;-5.11;56.94;96396.44;4982153;28;20109;-68
2022/12/17 18:28:21;;;;;;;23.98;15.15;;;;;;;-5.14;57.27;96396.56;4982960;28;20090;-68
2022/12/17 18:30:46;;;;;;;25.83;15.60;;;;;;;-5.17;57.31;96394.06;4981511;28;20106;-69
2022/12/17 18:33:12;;;;;;;27.73;16.13;;;;;;;-5.21;57.18;96389.91;4981229;28;20110;-70
2022/12/17 18:35:37;;;;;;;22.33;14.10;;;;;;;-5.25;56.97;96396.13;4980585;28;20114;-70
2022/12/17 18:38:02;;;;;;;22.58;13.98;;;;;;;-5.26;57.56;96402.22;4979679;28;20452;-69
2022/12/17 18:40:28;;;;;;;21.85;14.18;;;;;;;-5.27;56.85;96401.38;4982598;28;20388;-70
2022/12/17 18:45:37;;;;;;;23.70;14.52;;;;;;;-5.33;57.51;96407.66;4980360;28;20574;-69
2022/12/17 18:48:03;;;;;;;22.00;13.88;;;;;;;-5.34;57.67;96405.13;4982567;28;20070;-70
2022/12/17 18:50:29;;;;;;;23.52;14.30;;;;;;;-5.34;57.04;96399.91;4983936;28;20106;-71
2022/12/17 18:52:54;;;;;;;20.17;12.02;;;;;;;-5.38;56.57;96399.22;4982133;28;20129;-69
2022/12/17 18:55:20;;;;;;;21.77;14.18;;;;;;;-5.37;56.84;96400.06;4983361;28;20516;-71
2022/12/17 18:57:46;;;;;;;23.35;14.63;;;;;;;-5.37;57.00;96395.69;4983430;28;20119;-70
2022/12/17 19:00:11;;;;;;;22.13;14.15;;;;;;;-5.37;56.95;96393.09;4983913;28;20374;-70
2022/12/17 19:02:37;;;;;;;20.38;12.52;;;;;;;-5.37;56.79;96394.88;4979774;28;20196;-70
2022/12/17 19:05:02;;;;;;;21.60;13.55;;;;;;;-5.36;56.92;96387.00;4979758;28;20543;-70
2022/12/17 19:07:28;;;;;;;21.40;13.05;;;;;;;-5.35;56.92;96396.50;4983004;28;20077;-70
2022/12/17 19:09:53;;;;;;;21.13;13.73;;;;;;;-5.35;56.96;96393.91;4986640;28;20110;-70
2022/12/17 19:12:18;;;;;;;20.65;12.90;;;;;;;-5.36;57.67;96401.75;4983019;28;20075;-70
2022/12/17 19:14:44;;;;;;;20.38;11.98;;;;;;;-5.37;57.51;96395.69;4983907;28;20587;-70
2022/12/17 19:17:09;;;;;;;22.25;12.98;;;;;;;-5.39;57.34;96404.47;4980197;28;20106;-70
2022/12/17 19:19:35;;;;;;;19.25;11.45;;;;;;;-5.46;57.93;96409.03;4982700;28;20550;-71
2022/12/17 19:22:00;;;;;;;20.90;11.95;;;;;;;-5.47;57.49;96399.56;4981783;28;20135;-70
2022/12/17 19:24:26;;;;;;;24.55;13.82;;;;;;;-5.54;57.07;96396.34;4984940;28;20475;-70
2022/12/17 19:26:51;;;;;;;22.58;12.65;;;;;;;-5.52;57.59;96406.66;4978874;28;20180;-70
2022/12/17 19:29:17;;;;;;;22.02;12.90;;;;;;;-5.59;58.18;96396.53;4980448;28;20599;-70
2022/12/17 19:31:43;;;;;;;20.52;11.32;;;;;;;-5.63;57.63;96405.34;4964905;28;20338;-71
2022/12/17 19:34:14;;;;;;;20.65;11.45;;;;;;;-5.67;57.71;96396.00;4981207;28;20129;-70
2022/12/17 19:36:40;;;;;;;19.17;10.70;;;;;;;-5.76;56.78;96401.50;4978277;28;20601;-70
2022/12/17 19:39:06;;;;;;;14.25;8.50;;;;;;;-5.91;57.91;96401.16;4977951;28;20114;-69
2022/12/17 19:41:32;;;;;;;17.55;10.63;;;;;;;-5.88;57.56;96400.22;4978847;28;20229;-70
2022/12/17 19:43:59;;;;;;;18.75;11.30;;;;;;;-5.84;58.35;96409.59;4978960;28;20082;-69
2022/12/17 19:46:24;;;;;;;16.95;10.02;;;;;;;-5.92;57.42;96415.03;4980955;28;20602;-69
2022/12/17 19:48:50;;;;;;;24.38;14.52;;;;;;;-5.87;58.96;96415.69;4981114;28;20098;-69
2022/12/17 19:51:17;;;;;;;24.30;14.23;;;;;;;-5.92;58.50;96415.03;4973941;28;20535;-70
2022/12/17 19:53:43;;;;;;;24.27;14.88;;;;;;;-5.89;59.00;96408.88;4977311;28;20130;-71
2022/12/17 19:56:14;;;;;;;25.42;14.68;;;;;;;-5.89;58.50;96420.13;4979971;28;20463;-70
2022/12/17 19:58:40;;;;;;;24.60;15.20;;;;;;;-5.89;58.54;96421.84;4981639;28;20484;-70
2022/12/17 20:01:10;;;;;;;27.23;15.73;;;;;;;-5.86;58.09;96424.34;4979986;28;20678;-70
2022/12/17 20:03:36;;;;;;;27.58;17.08;;;;;;;-5.89;58.79;96424.44;4980527;28;20687;-70
2022/12/17 20:06:01;;;;;;;30.35;17.67;;;;;;;-5.87;57.68;96422.66;4965057;28;20102;-70
2022/12/17 20:08:27;;;;;;;30.77;17.77;;;;;;;-5.91;58.07;96426.25;4980925;28;20097;-70
2022/12/17 20:10:52;;;;;;;27.85;16.73;;;;;;;-5.91;57.67;96432.28;4979961;28;20117;-69
2022/12/17 20:13:18;;;;;;;28.05;17.52;;;;;;;-5.92;57.86;96432.34;4977436;28;20119;-70
2022/12/17 20:15:43;;;;;;;30.63;16.58;;;;;;;-5.94;58.13;96432.41;4983224;28;20502;-70
2022/12/17 20:18:09;;;;;;;27.45;14.88;;;;;;;-5.94;56.89;96432.41;4977783;28;20122;-71
2022/12/17 20:20:34;;;;;;;26.15;16.17;;;;;;;-5.98;57.78;96431.66;4981332;28;20128;-70
2022/12/17 20:22:59;;;;;;;25.33;15.80;;;;;;;-6.01;57.69;96436.94;4979792;28;20116;-70
2022/12/17 20:25:25;;;;;;;26.92;15.52;;;;;;;-5.99;57.51;96447.28;4981650;28;20369;-71
2022/12/17 20:27:50;;;;;;;25.20;15.38;;;;;;;-5.98;57.80;96441.22;4980309;28;20086;-70
2022/12/17 20:30:16;;;;;;;27.17;16.33;;;;;;;-6.02;58.21;96439.59;4977744;28;20117;-71
2022/12/17 20:32:41;;;;;;;25.05;15.07;;;;;;;-6.05;58.10;96439.72;4980733;28;20113;-71
2022/12/17 20:35:07;;;;;;;21.90;13.07;;;;;;;-6.08;57.65;96434.66;4981031;28;20120;-70
2022/12/17 20:37:32;;;;;;;27.33;16.02;;;;;;;-6.10;57.53;96439.88;4979156;28;20608;-70
2022/12/17 20:39:58;;;;;;;25.48;15.80;;;;;;;-6.15;58.21;96432.25;4980557;28;20098;-70
2022/12/17 20:42:23;;;;;;;26.35;15.38;;;;;;;-6.15;58.50;96437.44;4978100;28;20103;-70
2022/12/17 20:44:48;;;;;;;25.35;16.08;;;;;;;-6.18;58.11;96431.53;4980381;28;20559;-71
2022/12/17 20:47:14;;;;;;;27.13;15.90;;;;;;;-6.20;59.03;96436.75;4976273;28;20431;-70
2022/12/17 20:49:39;;;;;;;25.58;15.27;;;;;;;-6.24;59.59;96435.19;4978504;28;20415;-69
2022/12/17 20:52:04;;;;;;;26.42;16.63;;;;;;;-6.19;59.17;96428.06;4981065;28;20070;-71
2022/12/17 20:54:30;;;;;;;24.77;14.40;;;;;;;-6.31;58.51;96438.88;4978532;28;20106;-69
2022/12/17 20:56:55;;;;;;;29.17;17.13;;;;;;;-6.18;59.15;96432.34;4980239;28;20090;-70
2022/12/17 20:59:21;;;;;;;26.35;15.75;;;;;;;-6.16;58.69;96437.50;4978327;28;20300;-70
2022/12/17 21:01:46;;;;;;;25.95;15.32;;;;;;;-6.16;58.82;96432.31;4977443;28;20121;-70
2022/12/17 21:04:12;;;;;;;31.63;17.67;;;;;;;-6.09;58.54;96438.97;4979877;28;20122;-71
2022/12/17 21:06:38;;;;;;;31.33;18.05;;;;;;;-6.07;58.89;96441.50;4963329;28;20160;-71
2022/12/17 21:09:04;;;;;;;30.63;18.10;;;;;;;-6.07;59.08;96444.09;4977247;28;20124;-71
2022/12/17 21:11:30;;;;;;;28.38;16.70;;;;;;;-6.06;58.97;96444.06;4980271;28;20094;-71
2022/12/17 21:13:56;;;;;;;29.92;18.27;;;;;;;-6.05;59.15;96444.91;4981136;28;20114;-71
2022/12/17 21:16:23;;;;;;;28.52;17.95;;;;;;;-5.98;57.76;96446.41;4984169;28;20086;-71
2022/12/17 21:18:49;;;;;;;27.63;16.42;;;;;;;-5.93;58.66;96454.84;4982787;28;20110;-71
2022/12/17 21:21:17;;;;;;;30.70;18.60;;;;;;;-5.85;58.11;96464.94;4980439;28;20200;-70
2022/12/17 21:23:43;;;;;;;29.52;17.25;;;;;;;-5.84;57.60;96469.25;4981528;28;20085;-70
2022/12/17 21:26:11;;;;;;;32.83;20.20;;;;;;;-5.86;57.89;96466.69;4980230;28;20513;-71
2022/12/17 21:28:37;;;;;;;32.47;20.80;;;;;;;-5.86;58.11;96463.25;4981289;28;20161;-70
2022/12/17 21:31:02;;;;;;;34.20;21.15;;;;;;;-5.87;57.89;96467.56;4982132;28;20126;-69
2022/12/17 21:33:28;;;;;;;38.50;22.15;;;;;;;-5.85;58.27;96467.53;4982039;28;20106;-70
2022/12/17 21:36:00;;;;;;;36.30;21.42;;;;;;;-5.90;58.00;96475.50;4980648;28;20071;-70
2022/12/17 21:38:26;;;;;;;34.70;19.73;;;;;;;-5.91;57.37;96475.53;4977782;28;20121;-71
2022/12/17 21:40:51;;;;;;;37.35;22.48;;;;;;;-5.95;58.00;96474.78;4977118;28;20086;-70
2022/12/17 21:43:17;;;;;;;35.63;20.88;;;;;;;-5.99;58.36;96468.03;4983935;28;20152;-71
2022/12/17 21:45:42;;;;;;;33.70;21.00;;;;;;;-6.02;57.46;96465.53;4984548;28;20111;-70
2022/12/17 21:48:09;;;;;;;34.35;20.77;;;;;;;-6.02;57.47;96475.91;4982538;28;20087;-71
2022/12/17 21:50:38;;;;;;;38.80;23.13;;;;;;;-6.03;58.29;96474.22;4981286;28;20137;-70
2022/12/17 21:53:04;;;;;;;35.70;21.33;;;;;;;-6.12;59.29;96476.22;4979738;28;20535;-70
2022/12/17 21:55:29;;;;;;;36.03;21.63;;;;;;;-6.13;58.80;96479.72;4982815;28;20075;-70
2022/12/17 21:57:57;;;;;;;35.33;21.60;;;;;;;-6.16;58.58;96479.84;4982902;28;20114;-70
2022/12/17 22:00:23;;;;;;;36.15;20.83;;;;;;;-6.18;59.26;96475.59;4980163;28;20306;-70
2022/12/17 22:02:48;;;;;;;34.50;20.77;;;;;;;-6.24;58.05;96474.06;4981883;28;20099;-70
2022/12/17 22:05:13;;;;;;;33.70;20.38;;;;;;;-6.32;58.81;96479.50;4983132;28;20118;-70
2022/12/17 22:07:39;;;;;;;36.22;18.90;;;;;;;-6.37;59.29;96484.84;4983223;28;20075;-70
2022/12/17 22:10:05;;;;;;;29.85;18.20;;;;;;;-6.36;58.79;96483.09;4985727;28;20113;-71
2022/12/17 22:15:14;;;;;;;33.03;19.60;;;;;;;-6.36;59.03;96475.31;4983079;28;20136;-70
2022/12/17 22:17:39;;;;;;;35.67;19.55;;;;;;;-6.37;59.19;96478.81;4980342;28;20111;-70
2022/12/17 22:20:05;;;;;;;30.73;17.95;;;;;;;-6.44;58.96;96485.94;4980722;28;20091;-70
2022/12/17 22:22:31;;;;;;;34.20;19.90;;;;;;;-6.37;59.22;96474.47;4981478;28;20113;-71
2022/12/17 22:24:56;;;;;;;31.42;18.27;;;;;;;-6.42;59.51;96472.94;4983041;28;20087;-71
2022/12/17 22:27:22;;;;;;;34.40;19.40;;;;;;;-6.37;59.60;96469.31;4980565;28;20590;-71
2022/12/17 22:35:17;;;;;;;29.83;17.25;;;;;;;-6.44;58.48;96479.91;4983581;28;20121;-69
2022/12/17 22:37:42;;;;;;;35.05;19.27;;;;;;;-6.41;57.91;96485.00;4981172;28;20133;-71
2022/12/17 22:40:08;;;;;;;26.73;15.48;;;;;;;-6.40;57.21;96497.06;4981721;28;20102;-71
2022/12/17 22:45:18;;;;;;;32.58;20.15;;;;;;;-6.34;58.10;96485.63;4980220;28;20172;-69
2022/12/17 22:47:43;;;;;;;30.67;19.42;;;;;;;-6.31;58.14;96485.53;4980333;28;20527;-70
2022/12/17 22:50:09;;;;;;;33.45;19.80;;;;;;;-6.29;59.66;96487.19;4981818;28;20102;-70
2022/12/17 22:52:34;;;;;;;30.52;19.00;;;;;;;-6.22;58.81;96490.41;4980010;28;20090;-71
2022/12/17 22:55:00;;;;;;;32.28;18.75;;;;;;;-6.19;58.32;96487.72;4984601;28;20099;-70
2022/12/17 22:57:25;;;;;;;33.00;19.30;;;;;;;-6.15;58.16;96491.06;4984027;28;20098;-69
2022/12/17 22:59:50;;;;;;;30.85;18.30;;;;;;;-6.19;58.14;96479.94;4982731;28;20094;-70
2022/12/17 23:02:16;;;;;;;26.88;16.23;;;;;;;-6.19;58.18;96485.13;4980302;28;20114;-71
2022/12/17 23:04:41;;;;;;;28.67;17.73;;;;;;;-6.14;58.69;96483.22;4983935;28;20086;-69
2022/12/17 23:07:07;;;;;;;29.27;18.08;;;;;;;-6.11;58.62;96488.28;4980111;28;20197;-71
2022/12/17 23:09:32;;;;;;;29.63;17.65;;;;;;;-6.10;58.33;96483.97;4982379;28;20105;-71
2022/12/17 23:12:49;;;;;;;28.85;17.27;;;;;;;-6.10;58.62;96478.78;4982544;28;20079;-71
2022/12/17 23:14:43;;;;;;;27.23;16.42;;;;;;;-6.07;58.26;96488.19;4980794;28;20101;-70
2022/12/17 23:17:08;;;;;;;26.98;16.98;;;;;;;-6.09;58.60;96483.06;4985373;28;20086;-70
2022/12/17 23:19:34;;;;;;;26.95;16.48;;;;;;;-6.07;58.68;96480.41;4984181;28;20091;-71
2022/12/17 23:21:59;;;;;;;31.15;18.63;;;;;;;-6.06;58.28;96492.47;4983711;28;20121;-69
2022/12/17 23:24:24;;;;;;;25.45;16.58;;;;;;;-6.06;58.38;96500.25;4985175;28;20090;-70
2022/12/17 23:26:50;;;;;;;26.65;16.10;;;;;;;-6.05;58.10;96502.78;4982169;28;20099;-71
2022/12/17 23:29:15;;;;;;;27.85;17.23;;;;;;;-6.03;58.14;96502.75;4980826;28;20106;-70
2022/12/17 23:31:41;;;;;;;24.73;16.10;;;;;;;-6.01;58.45;96498.38;4980663;28;20102;-71
2022/12/17 23:34:06;;;;;;;26.52;15.93;;;;;;;-5.99;57.55;96506.91;4982987;28;20107;-70
2022/12/17 23:36:32;;;;;;;26.50;16.25;;;;;;;-5.97;58.00;96497.34;4979337;28;20470;-70
2022/12/17 23:38:57;;;;;;;33.00;18.35;;;;;;;-5.94;58.31;96499.00;4982071;28;20225;-69
2022/12/17 23:41:25;;;;;;;26.77;16.48;;;;;;;-5.92;57.67;96504.97;4981029;28;20110;-71
2022/12/17 23:43:51;;;;;;;23.52;14.18;;;;;;;-5.92;56.99;96507.56;4978288;28;20071;-71
2022/12/17 23:46:16;;;;;;;26.92;15.90;;;;;;;-5.91;57.59;96504.06;4981073;28;20107;-70
2022/12/17 23:48:42;;;;;;;25.27;14.93;;;;;;;-5.89;57.51;96502.25;4982310;28;20542;-71
2022/12/17 23:51:08;;;;;;;27.15;15.63;;;;;;;-5.87;57.39;96503.91;4982137;28;20415;-70
2022/12/17 23:53:34;;;;;;;24.85;15.98;;;;;;;-5.86;57.41;96516.00;4981631;28;20172;-70
2022/12/17 23:56:16;;;;;;;27.02;17.05;;;;;;;-5.88;57.32;96503.97;4976823;28;20249;-71
2022/12/17 23:58:42;;;;;;;29.17;17.60;;;;;;;-5.87;57.57;96495.28;4980919;28;20111;-71
